KDHT/DHT METAR and TAF weather

Enter ICAO airport designator
Station Type Date Time Source
KDHT METAR 2022/08/16 17:53 UTC NOAA

KDHT 161753Z AUTO VRB05KT 10SM CLR 27/16 A3016 RMK AO2 SLP151 T02720161 10278 20206 58003


Station Type Date Time Source
KDHT Decoded METAR 2022/08/16 17:53 UTC NOAA

DALHART MUNICIPAL AIRPORT, TX, United States (KDHT) 36-01N 102-33W 1217M
Aug 16, 2022 - 01:53 PM EDT / 2022.08.16 1753 UTC
Wind: Variable at 6 MPH (5 KT):0
Visibility: 10 mile(s):0
Sky conditions: clear
Temperature: 81.0 F (27.2 C)
Dew Point: 61.0 F (16.1 C)
Relative Humidity: 50%
Pressure (altimeter): 30.16 in. Hg (1021 hPa)
Pressure tendency: 0.01 inches (0.3 hPa) lower than three hours ago
ob: KDHT 161753Z AUTO VRB05KT 10SM CLR 27/16 A3016 RMK AO2 SLP151 T02720161 10278 20206 58003
cycle: 18

Station Type Date Time Source
KDHT TAF 2022/08/16 18:51 UTC NOAA

TAF KDHT 161749Z 1618/1718 04009KT P6SM FEW250
FM170300 02013KT 6SM -SHRA OVC020
FM171000 03005KT P6SM BKN010
FM171500 03007KT P6SM SCT020

Example: see airport list